sensor_id;sensor_type;location;lat;lon;timestamp;noise_LAeq;noise_LA_min;noise_LA_max;noise_LA01;noise_LA95
71034;Laerm;58847;52.378;4.740;2022-08-03T00:00:09;33.22;31.43;39.20;;
71034;Laerm;58847;52.378;4.740;2022-08-03T00:00:24;33.81;31.54;39.10;;
71034;Laerm;58847;52.378;4.740;2022-08-03T00:00:37;33.32;31.04;38.99;;
71034;Laerm;58847;52.378;4.740;2022-08-03T00:00:47;34.41;32.09;45.05;;
71034;Laerm;58847;52.378;4.740;2022-08-03T00:00:57;35.02;32.01;50.95;;
71034;Laerm;58847;52.378;4.740;2022-08-03T00:01:07;34.81;32.40;37.78;;
71034;Laerm;58847;52.378;4.740;2022-08-03T00:01:18;34.25;31.29;37.30;;
71034;Laerm;58847;52.378;4.740;2022-08-03T00:01:28;34.32;32.33;39.12;;
71034;Laerm;58847;52.378;4.740;2022-08-03T00:01:41;33.76;31.75;37.46;;
71034;Laerm;58847;52.378;4.740;2022-08-03T00:01:52;33.79;31.64;41.17;;
71034;Laerm;58847;52.378;4.740;2022-08-03T00:02:02;34.29;31.74;38.75;;
71034;Laerm;58847;52.378;4.740;2022-08-03T00:02:13;33.77;31.55;43.84;;
71034;Laerm;58847;52.378;4.740;2022-08-03T00:02:23;34.68;31.44;38.20;;
71034;Laerm;58847;52.378;4.740;2022-08-03T00:02:33;33.92;32.21;39.86;;
71034;Laerm;58847;52.378;4.740;2022-08-03T00:02:43;33.44;31.35;37.42;;
71034;Laerm;58847;52.378;4.740;2022-08-03T00:02:53;33.83;31.62;36.46;;
71034;Laerm;58847;52.378;4.740;2022-08-03T00:03:04;33.18;31.14;35.63;;
71034;Laerm;58847;52.378;4.740;2022-08-03T00:03:14;33.96;31.65;45.76;;
71034;Laerm;58847;52.378;4.740;2022-08-03T00:03:24;32.86;30.66;36.91;;
71034;Laerm;58847;52.378;4.740;2022-08-03T00:03:35;32.92;30.71;41.48;;
71034;Laerm;58847;52.378;4.740;2022-08-03T00:03:45;32.49;30.59;36.79;;
71034;Laerm;58847;52.378;4.740;2022-08-03T00:03:55;32.46;30.36;36.20;;
71034;Laerm;58847;52.378;4.740;2022-08-03T00:04:06;32.36;30.34;38.67;;
71034;Laerm;58847;52.378;4.740;2022-08-03T00:04:16;32.55;30.50;37.09;;
71034;Laerm;58847;52.378;4.740;2022-08-03T00:04:26;32.89;30.56;38.47;;
71034;Laerm;58847;52.378;4.740;2022-08-03T00:04:37;33.27;30.69;43.57;;
71034;Laerm;58847;52.378;4.740;2022-08-03T00:04:47;32.94;31.05;38.60;;
71034;Laerm;58847;52.378;4.740;2022-08-03T00:04:57;33.54;31.05;39.58;;
71034;Laerm;58847;52.378;4.740;2022-08-03T00:05:07;33.73;31.32;36.91;;
71034;Laerm;58847;52.378;4.740;2022-08-03T00:05:18;33.24;30.97;36.40;;
71034;Laerm;58847;52.378;4.740;2022-08-03T00:05:28;32.93;30.83;38.99;;
71034;Laerm;58847;52.378;4.740;2022-08-03T00:05:38;33.51;31.55;37.82;;
71034;Laerm;58847;52.378;4.740;2022-08-03T00:05:49;33.21;31.20;37.03;;
71034;Laerm;58847;52.378;4.740;2022-08-03T00:05:59;33.39;31.33;38.44;;
71034;Laerm;58847;52.378;4.740;2022-08-03T00:06:09;33.27;31.44;36.71;;
71034;Laerm;58847;52.378;4.740;2022-08-03T00:06:19;33.86;31.73;36.82;;
71034;Laerm;58847;52.378;4.740;2022-08-03T00:06:30;33.92;31.58;39.72;;
71034;Laerm;58847;52.378;4.740;2022-08-03T00:06:40;34.00;31.45;43.13;;
71034;Laerm;58847;52.378;4.740;2022-08-03T00:06:50;34.97;32.90;39.61;;
71034;Laerm;58847;52.378;4.740;2022-08-03T00:07:00;35.49;33.15;37.95;;
71034;Laerm;58847;52.378;4.740;2022-08-03T00:07:11;38.87;35.19;42.69;;
71034;Laerm;58847;52.378;4.740;2022-08-03T00:07:21;38.94;35.48;42.63;;
71034;Laerm;58847;52.378;4.740;2022-08-03T00:07:31;42.50;37.84;48.64;;
71034;Laerm;58847;52.378;4.740;2022-08-03T00:07:41;44.17;38.29;49.47;;
71034;Laerm;58847;52.378;4.740;2022-08-03T00:07:51;45.96;39.94;52.78;;
71034;Laerm;58847;52.378;4.740;2022-08-03T00:08:02;46.31;41.03;51.76;;
71034;Laerm;58847;52.378;4.740;2022-08-03T00:08:12;43.10;37.91;49.85;;
71034;Laerm;58847;52.378;4.740;2022-08-03T00:08:22;39.36;35.77;44.83;;
71034;Laerm;58847;52.378;4.740;2022-08-03T00:08:33;42.10;37.02;48.17;;
71034;Laerm;58847;52.378;4.740;2022-08-03T00:08:43;40.16;35.39;44.44;;
71034;Laerm;58847;52.378;4.740;2022-08-03T00:08:53;39.91;35.47;45.58;;
71034;Laerm;58847;52.378;4.740;2022-08-03T00:09:04;39.01;33.97;43.20;;
71034;Laerm;58847;52.378;4.740;2022-08-03T00:09:14;35.07;32.78;39.75;;
71034;Laerm;58847;52.378;4.740;2022-08-03T00:09:24;36.04;32.65;42.09;;
71034;Laerm;58847;52.378;4.740;2022-08-03T00:09:34;35.42;33.24;39.11;;
71034;Laerm;58847;52.378;4.740;2022-08-03T00:09:45;36.38;34.17;39.80;;
71034;Laerm;58847;52.378;4.740;2022-08-03T00:09:55;36.01;33.38;45.08;;
71034;Laerm;58847;52.378;4.740;2022-08-03T00:10:05;36.10;33.28;38.92;;
71034;Laerm;58847;52.378;4.740;2022-08-03T00:10:16;34.64;32.64;42.03;;
71034;Laerm;58847;52.378;4.740;2022-08-03T00:10:26;34.39;32.58;38.54;;
71034;Laerm;58847;52.378;4.740;2022-08-03T00:10:36;34.48;31.95;40.51;;
71034;Laerm;58847;52.378;4.740;2022-08-03T00:10:47;34.31;32.24;37.72;;
71034;Laerm;58847;52.378;4.740;2022-08-03T00:10:57;33.60;30.85;41.30;;
71034;Laerm;58847;52.378;4.740;2022-08-03T00:11:07;34.01;31.02;43.26;;
71034;Laerm;58847;52.378;4.740;2022-08-03T00:11:17;34.83;31.49;41.58;;
71034;Laerm;58847;52.378;4.740;2022-08-03T00:11:28;34.07;31.18;38.58;;
71034;Laerm;58847;52.378;4.740;2022-08-03T00:11:38;33.53;31.29;40.93;;
71034;Laerm;58847;52.378;4.740;2022-08-03T00:11:48;34.28;31.94;39.71;;
71034;Laerm;58847;52.378;4.740;2022-08-03T00:11:58;34.40;31.87;39.21;;
71034;Laerm;58847;52.378;4.740;2022-08-03T00:12:09;34.08;31.35;38.08;;
71034;Laerm;58847;52.378;4.740;2022-08-03T00:12:19;34.26;31.51;39.40;;
71034;Laerm;58847;52.378;4.740;2022-08-03T00:12:29;36.78;33.13;40.27;;
71034;Laerm;58847;52.378;4.740;2022-08-03T00:12:39;36.45;32.46;39.97;;
71034;Laerm;58847;52.378;4.740;2022-08-03T00:12:50;37.68;33.80;43.59;;
71034;Laerm;58847;52.378;4.740;2022-08-03T00:13:00;37.90;34.69;40.59;;
71034;Laerm;58847;52.378;4.740;2022-08-03T00:13:10;40.95;34.48;45.63;;
71034;Laerm;58847;52.378;4.740;2022-08-03T00:13:22;43.63;37.07;53.12;;
71034;Laerm;58847;52.378;4.740;2022-08-03T00:13:32;44.90;37.92;52.09;;
71034;Laerm;58847;52.378;4.740;2022-08-03T00:13:42;44.72;39.58;49.81;;
71034;Laerm;58847;52.378;4.740;2022-08-03T00:13:53;40.01;35.88;43.50;;
71034;Laerm;58847;52.378;4.740;2022-08-03T00:14:06;43.28;34.37;49.97;;
71034;Laerm;58847;52.378;4.740;2022-08-03T00:14:16;39.66;33.63;46.19;;
71034;Laerm;58847;52.378;4.740;2022-08-03T00:14:27;36.36;32.73;40.95;;
71034;Laerm;58847;52.378;4.740;2022-08-03T00:14:37;34.40;32.65;36.98;;
71034;Laerm;58847;52.378;4.740;2022-08-03T00:14:47;34.54;32.19;39.14;;
71034;Laerm;58847;52.378;4.740;2022-08-03T00:14:57;34.77;32.13;38.17;;
71034;Laerm;58847;52.378;4.740;2022-08-03T00:15:08;33.76;31.63;36.50;;
71034;Laerm;58847;52.378;4.740;2022-08-03T00:15:18;34.41;32.09;38.57;;
71034;Laerm;58847;52.378;4.740;2022-08-03T00:15:29;34.81;32.02;40.40;;
71034;Laerm;58847;52.378;4.740;2022-08-03T00:15:40;35.68;32.77;40.82;;
71034;Laerm;58847;52.378;4.740;2022-08-03T00:15:50;35.38;32.33;39.30;;
71034;Laerm;58847;52.378;4.740;2022-08-03T00:16:01;35.24;33.21;38.66;;
71034;Laerm;58847;52.378;4.740;2022-08-03T00:16:11;35.77;33.28;41.72;;
71034;Laerm;58847;52.378;4.740;2022-08-03T00:16:22;34.69;32.67;38.02;;
71034;Laerm;58847;52.378;4.740;2022-08-03T00:16:34;34.73;32.49;37.35;;
71034;Laerm;58847;52.378;4.740;2022-08-03T00:16:44;34.11;31.48;36.54;;
71034;Laerm;58847;52.378;4.740;2022-08-03T00:16:54;34.67;32.35;40.20;;
71034;Laerm;58847;52.378;4.740;2022-08-03T00:17:04;34.89;32.77;43.74;;
71034;Laerm;58847;52.378;4.740;2022-08-03T00:17:15;34.70;32.66;39.50;;
71034;Laerm;58847;52.378;4.740;2022-08-03T00:17:25;34.57;32.39;38.36;;
71034;Laerm;58847;52.378;4.740;2022-08-03T00:17:35;34.79;32.83;41.33;;
71034;Laerm;58847;52.378;4.740;2022-08-03T00:17:45;35.30;32.45;38.95;;
71034;Laerm;58847;52.378;4.740;2022-08-03T00:17:55;35.85;32.95;39.38;;
71034;Laerm;58847;52.378;4.740;2022-08-03T00:18:06;36.30;33.61;39.61;;
71034;Laerm;58847;52.378;4.740;2022-08-03T00:18:16;36.55;34.04;39.77;;
71034;Laerm;58847;52.378;4.740;2022-08-03T00:18:27;36.42;33.24;39.45;;
71034;Laerm;58847;52.378;4.740;2022-08-03T00:18:37;35.96;33.77;38.66;;
71034;Laerm;58847;52.378;4.740;2022-08-03T00:18:48;36.06;34.04;39.11;;
71034;Laerm;58847;52.378;4.740;2022-08-03T00:18:58;36.21;33.01;39.99;;
71034;Laerm;58847;52.378;4.740;2022-08-03T00:19:08;35.82;32.28;43.69;;
71034;Laerm;58847;52.378;4.740;2022-08-03T00:19:18;36.51;33.27;40.16;;
71034;Laerm;58847;52.378;4.740;2022-08-03T00:19:28;35.09;32.19;40.91;;
71034;Laerm;58847;52.378;4.740;2022-08-03T00:19:39;34.80;32.38;37.20;;
71034;Laerm;58847;52.378;4.740;2022-08-03T00:19:49;33.77;31.44;38.87;;
71034;Laerm;58847;52.378;4.740;2022-08-03T00:19:59;34.15;32.05;38.07;;
71034;Laerm;58847;52.378;4.740;2022-08-03T00:20:09;34.45;31.77;42.31;;
71034;Laerm;58847;52.378;4.740;2022-08-03T00:20:20;33.68;31.21;38.35;;
71034;Laerm;58847;52.378;4.740;2022-08-03T00:20:30;34.89;31.98;39.51;;
71034;Laerm;58847;52.378;4.740;2022-08-03T00:20:41;34.84;32.52;37.69;;
71034;Laerm;58847;52.378;4.740;2022-08-03T00:20:51;34.71;31.96;45.09;;
71034;Laerm;58847;52.378;4.740;2022-08-03T00:21:02;33.89;31.66;37.85;;
71034;Laerm;58847;52.378;4.740;2022-08-03T00:21:12;33.76;31.57;39.03;;
71034;Laerm;58847;52.378;4.740;2022-08-03T00:21:22;33.73;31.50;37.00;;
71034;Laerm;58847;52.378;4.740;2022-08-03T00:21:33;33.64;31.61;40.28;;
71034;Laerm;58847;52.378;4.740;2022-08-03T00:21:43;33.64;31.08;37.82;;
71034;Laerm;58847;52.378;4.740;2022-08-03T00:21:53;34.18;31.64;39.59;;
71034;Laerm;58847;52.378;4.740;2022-08-03T00:22:03;33.70;31.51;38.42;;
71034;Laerm;58847;52.378;4.740;2022-08-03T00:22:13;33.54;30.94;38.27;;
71034;Laerm;58847;52.378;4.740;2022-08-03T00:22:24;33.11;31.19;38.02;;
71034;Laerm;58847;52.378;4.740;2022-08-03T00:22:34;33.76;31.20;44.37;;
71034;Laerm;58847;52.378;4.740;2022-08-03T00:22:45;33.38;31.34;37.88;;
71034;Laerm;58847;52.378;4.740;2022-08-03T00:22:55;33.90;31.59;39.12;;
71034;Laerm;58847;52.378;4.740;2022-08-03T00:23:05;33.98;31.55;40.37;;
71034;Laerm;58847;52.378;4.740;2022-08-03T00:23:16;33.73;31.67;37.63;;
71034;Laerm;58847;52.378;4.740;2022-08-03T00:23:26;34.37;32.00;38.84;;
71034;Laerm;58847;52.378;4.740;2022-08-03T00:23:36;34.59;32.36;39.61;;
71034;Laerm;58847;52.378;4.740;2022-08-03T00:23:46;35.36;32.87;40.45;;
71034;Laerm;58847;52.378;4.740;2022-08-03T00:23:56;34.80;32.82;37.98;;
71034;Laerm;58847;52.378;4.740;2022-08-03T00:24:07;35.51;32.52;39.92;;
71034;Laerm;58847;52.378;4.740;2022-08-03T00:24:17;34.79;31.94;38.14;;
71034;Laerm;58847;52.378;4.740;2022-08-03T00:24:27;34.45;32.15;42.86;;
71034;Laerm;58847;52.378;4.740;2022-08-03T00:24:37;34.14;32.17;36.84;;
71034;Laerm;58847;52.378;4.740;2022-08-03T00:24:47;33.80;31.21;39.13;;
71034;Laerm;58847;52.378;4.740;2022-08-03T00:24:58;33.78;31.56;37.75;;
71034;Laerm;58847;52.378;4.740;2022-08-03T00:25:09;34.14;31.62;37.81;;
71034;Laerm;58847;52.378;4.740;2022-08-03T00:25:19;35.24;32.34;39.61;;
71034;Laerm;58847;52.378;4.740;2022-08-03T00:25:29;34.68;32.31;38.21;;
71034;Laerm;58847;52.378;4.740;2022-08-03T00:25:40;34.57;32.19;38.92;;
71034;Laerm;58847;52.378;4.740;2022-08-03T00:25:50;34.33;31.45;41.15;;
71034;Laerm;58847;52.378;4.740;2022-08-03T00:26:00;34.10;32.05;37.55;;
71034;Laerm;58847;52.378;4.740;2022-08-03T00:26:10;33.68;31.71;37.73;;
71034;Laerm;58847;52.378;4.740;2022-08-03T00:26:21;33.86;31.78;43.92;;
71034;Laerm;58847;52.378;4.740;2022-08-03T00:26:31;33.66;32.00;38.80;;
71034;Laerm;58847;52.378;4.740;2022-08-03T00:26:41;33.40;31.09;36.18;;
71034;Laerm;58847;52.378;4.740;2022-08-03T00:26:51;33.18;31.12;38.11;;
71034;Laerm;58847;52.378;4.740;2022-08-03T00:27:02;33.12;30.91;37.36;;
71034;Laerm;58847;52.378;4.740;2022-08-03T00:27:12;33.10;30.85;35.88;;
71034;Laerm;58847;52.378;4.740;2022-08-03T00:27:22;33.14;31.39;36.39;;
71034;Laerm;58847;52.378;4.740;2022-08-03T00:27:32;33.26;31.39;39.33;;
71034;Laerm;58847;52.378;4.740;2022-08-03T00:27:42;33.86;31.68;38.51;;
71034;Laerm;58847;52.378;4.740;2022-08-03T00:27:53;33.98;31.29;43.13;;
71034;Laerm;58847;52.378;4.740;2022-08-03T00:28:04;33.69;31.66;36.26;;
71034;Laerm;58847;52.378;4.740;2022-08-03T00:28:14;34.07;31.60;40.92;;
71034;Laerm;58847;52.378;4.740;2022-08-03T00:28:24;34.32;32.04;39.75;;
71034;Laerm;58847;52.378;4.740;2022-08-03T00:28:34;34.07;31.53;39.85;;
71034;Laerm;58847;52.378;4.740;2022-08-03T00:28:45;34.05;31.49;36.69;;
71034;Laerm;58847;52.378;4.740;2022-08-03T00:28:55;33.81;31.55;37.03;;
71034;Laerm;58847;52.378;4.740;2022-08-03T00:29:05;33.68;31.44;38.14;;
71034;Laerm;58847;52.378;4.740;2022-08-03T00:29:15;33.49;30.81;38.03;;
71034;Laerm;58847;52.378;4.740;2022-08-03T00:29:25;33.26;31.49;38.52;;
71034;Laerm;58847;52.378;4.740;2022-08-03T00:29:36;33.76;31.89;40.63;;
71034;Laerm;58847;52.378;4.740;2022-08-03T00:29:46;34.30;32.16;41.59;;
71034;Laerm;58847;52.378;4.740;2022-08-03T00:29:56;34.00;31.83;38.13;;
71034;Laerm;58847;52.378;4.740;2022-08-03T00:30:06;33.62;31.38;37.38;;
71034;Laerm;58847;52.378;4.740;2022-08-03T00:30:17;33.94;31.39;40.83;;
71034;Laerm;58847;52.378;4.740;2022-08-03T00:30:27;34.07;31.61;41.89;;
71034;Laerm;58847;52.378;4.740;2022-08-03T00:30:37;33.85;31.57;40.24;;
71034;Laerm;58847;52.378;4.740;2022-08-03T00:30:48;33.89;32.03;40.45;;
71034;Laerm;58847;52.378;4.740;2022-08-03T00:30:58;34.08;31.83;37.61;;
71034;Laerm;58847;52.378;4.740;2022-08-03T00:31:08;33.26;31.10;35.67;;
71034;Laerm;58847;52.378;4.740;2022-08-03T00:31:18;33.56;31.29;39.64;;
71034;Laerm;58847;52.378;4.740;2022-08-03T00:31:28;33.64;31.33;38.52;;
71034;Laerm;58847;52.378;4.740;2022-08-03T00:31:39;33.55;31.27;38.99;;
71034;Laerm;58847;52.378;4.740;2022-08-03T00:31:49;34.02;31.57;38.42;;
71034;Laerm;58847;52.378;4.740;2022-08-03T00:31:59;34.04;31.92;37.76;;
71034;Laerm;58847;52.378;4.740;2022-08-03T00:32:10;34.00;31.85;40.69;;
71034;Laerm;58847;52.378;4.740;2022-08-03T00:32:20;33.96;32.20;38.24;;
71034;Laerm;58847;52.378;4.740;2022-08-03T00:32:30;34.27;32.29;38.69;;
71034;Laerm;58847;52.378;4.740;2022-08-03T00:32:40;34.17;31.53;36.41;;
71034;Laerm;58847;52.378;4.740;2022-08-03T00:32:50;34.01;31.50;36.92;;
71034;Laerm;58847;52.378;4.740;2022-08-03T00:33:01;34.86;31.72;40.06;;
71034;Laerm;58847;52.378;4.740;2022-08-03T00:33:11;34.45;32.10;38.71;;
71034;Laerm;58847;52.378;4.740;2022-08-03T00:33:22;34.57;31.76;37.75;;
71034;Laerm;58847;52.378;4.740;2022-08-03T00:33:32;34.38;32.21;40.38;;
71034;Laerm;58847;52.378;4.740;2022-08-03T00:33:42;34.13;31.93;39.16;;
71034;Laerm;58847;52.378;4.740;2022-08-03T00:33:53;34.07;31.91;39.65;;
71034;Laerm;58847;52.378;4.740;2022-08-03T00:34:03;33.81;31.16;38.00;;
71034;Laerm;58847;52.378;4.740;2022-08-03T00:34:13;33.97;31.53;37.23;;
71034;Laerm;58847;52.378;4.740;2022-08-03T00:34:23;34.28;32.23;44.05;;
71034;Laerm;58847;52.378;4.740;2022-08-03T00:34:33;33.79;31.57;37.62;;
71034;Laerm;58847;52.378;4.740;2022-08-03T00:34:44;33.97;31.61;37.73;;
71034;Laerm;58847;52.378;4.740;2022-08-03T00:34:54;34.45;32.44;36.63;;
71034;Laerm;58847;52.378;4.740;2022-08-03T00:35:04;34.31;31.83;37.58;;
71034;Laerm;58847;52.378;4.740;2022-08-03T00:35:15;35.25;32.85;38.75;;
71034;Laerm;58847;52.378;4.740;2022-08-03T00:35:25;34.62;32.45;39.36;;
71034;Laerm;58847;52.378;4.740;2022-08-03T00:35:35;34.79;32.28;39.60;;
71034;Laerm;58847;52.378;4.740;2022-08-03T00:35:46;35.67;33.18;40.18;;
71034;Laerm;58847;52.378;4.740;2022-08-03T00:35:56;35.19;32.29;38.71;;
71034;Laerm;58847;52.378;4.740;2022-08-03T00:36:06;34.60;32.11;42.50;;
71034;Laerm;58847;52.378;4.740;2022-08-03T00:36:16;34.42;32.03;39.01;;
71034;Laerm;58847;52.378;4.740;2022-08-03T00:36:27;34.37;32.28;41.46;;
71034;Laerm;58847;52.378;4.740;2022-08-03T00:36:37;34.70;31.93;39.27;;
71034;Laerm;58847;52.378;4.740;2022-08-03T00:36:47;33.79;31.75;37.36;;
71034;Laerm;58847;52.378;4.740;2022-08-03T00:36:57;34.03;32.11;36.73;;
71034;Laerm;58847;52.378;4.740;2022-08-03T00:37:07;35.21;33.12;37.74;;
71034;Laerm;58847;52.378;4.740;2022-08-03T00:37:18;34.64;32.63;37.74;;
71034;Laerm;58847;52.378;4.740;2022-08-03T00:37:28;34.69;32.85;37.74;;
71034;Laerm;58847;52.378;4.740;2022-08-03T00:37:38;34.15;32.30;38.13;;
71034;Laerm;58847;52.378;4.740;2022-08-03T00:37:48;34.36;32.19;38.96;;
71034;Laerm;58847;52.378;4.740;2022-08-03T00:37:58;34.34;31.77;38.30;;
71034;Laerm;58847;52.378;4.740;2022-08-03T00:38:09;34.81;32.19;37.82;;
71034;Laerm;58847;52.378;4.740;2022-08-03T00:38:19;34.75;32.60;38.07;;
71034;Laerm;58847;52.378;4.740;2022-08-03T00:38:29;34.97;32.32;38.25;;
71034;Laerm;58847;52.378;4.740;2022-08-03T00:38:40;34.17;32.18;37.21;;
71034;Laerm;58847;52.378;4.740;2022-08-03T00:38:50;34.11;31.72;39.10;;
71034;Laerm;58847;52.378;4.740;2022-08-03T00:39:00;34.02;31.97;42.26;;
71034;Laerm;58847;52.378;4.740;2022-08-03T00:39:10;34.12;32.30;38.65;;
71034;Laerm;58847;52.378;4.740;2022-08-03T00:39:20;34.49;31.97;38.05;;
71034;Laerm;58847;52.378;4.740;2022-08-03T00:39:30;34.63;32.58;38.49;;
71034;Laerm;58847;52.378;4.740;2022-08-03T00:39:41;34.03;31.90;39.30;;
71034;Laerm;58847;52.378;4.740;2022-08-03T00:39:52;33.72;31.39;41.08;;
71034;Laerm;58847;52.378;4.740;2022-08-03T00:40:02;33.43;31.38;37.76;;
71034;Laerm;58847;52.378;4.740;2022-08-03T00:40:13;34.05;31.86;38.82;;
71034;Laerm;58847;52.378;4.740;2022-08-03T00:40:24;34.10;32.11;40.77;;
71034;Laerm;58847;52.378;4.740;2022-08-03T00:40:34;34.26;32.00;39.10;;
71034;Laerm;58847;52.378;4.740;2022-08-03T00:40:44;33.97;31.74;37.18;;
71034;Laerm;58847;52.378;4.740;2022-08-03T00:40:55;34.12;32.20;40.76;;
71034;Laerm;58847;52.378;4.740;2022-08-03T00:41:05;34.14;31.79;36.36;;
71034;Laerm;58847;52.378;4.740;2022-08-03T00:41:15;34.12;32.06;41.84;;
71034;Laerm;58847;52.378;4.740;2022-08-03T00:41:25;33.94;32.07;37.31;;
71034;Laerm;58847;52.378;4.740;2022-08-03T00:41:35;33.95;31.83;37.43;;
71034;Laerm;58847;52.378;4.740;2022-08-03T00:41:46;34.07;31.84;39.67;;
71034;Laerm;58847;52.378;4.740;2022-08-03T00:41:56;33.66;31.87;37.34;;
71034;Laerm;58847;52.378;4.740;2022-08-03T00:42:06;33.72;31.58;42.19;;
71034;Laerm;58847;52.378;4.740;2022-08-03T00:42:16;33.76;31.16;37.47;;
71034;Laerm;58847;52.378;4.740;2022-08-03T00:42:27;33.90;31.60;36.41;;
71034;Laerm;58847;52.378;4.740;2022-08-03T00:42:47;34.66;32.57;38.56;;
71034;Laerm;58847;52.378;4.740;2022-08-03T00:42:58;34.50;32.34;43.41;;
71034;Laerm;58847;52.378;4.740;2022-08-03T00:43:08;34.88;32.65;39.38;;
71034;Laerm;58847;52.378;4.740;2022-08-03T00:43:23;34.56;32.65;37.98;;
71034;Laerm;58847;52.378;4.740;2022-08-03T00:43:33;34.73;32.21;41.62;;
71034;Laerm;58847;52.378;4.740;2022-08-03T00:43:44;35.05;32.98;41.76;;
71034;Laerm;58847;52.378;4.740;2022-08-03T00:43:54;35.04;33.07;37.83;;
71034;Laerm;58847;52.378;4.740;2022-08-03T00:44:04;34.59;32.69;38.35;;
71034;Laerm;58847;52.378;4.740;2022-08-03T00:44:14;34.52;32.65;39.21;;
71034;Laerm;58847;52.378;4.740;2022-08-03T00:44:25;34.85;32.61;39.20;;
71034;Laerm;58847;52.378;4.740;2022-08-03T00:44:38;34.34;32.08;38.43;;
71034;Laerm;58847;52.378;4.740;2022-08-03T00:44:49;33.55;31.62;37.22;;
71034;Laerm;58847;52.378;4.740;2022-08-03T00:44:59;33.60;31.04;41.05;;
71034;Laerm;58847;52.378;4.740;2022-08-03T00:45:10;33.71;31.64;37.59;;
71034;Laerm;58847;52.378;4.740;2022-08-03T00:45:21;33.86;32.14;40.78;;
71034;Laerm;58847;52.378;4.740;2022-08-03T00:45:32;33.74;32.07;37.58;;
71034;Laerm;58847;52.378;4.740;2022-08-03T00:45:43;34.07;31.57;42.01;;
71034;Laerm;58847;52.378;4.740;2022-08-03T00:45:53;34.41;32.39;39.90;;
71034;Laerm;58847;52.378;4.740;2022-08-03T00:46:03;34.23;32.39;41.02;;
71034;Laerm;58847;52.378;4.740;2022-08-03T00:46:14;33.97;32.01;38.11;;
71034;Laerm;58847;52.378;4.740;2022-08-03T00:46:24;33.90;32.11;37.14;;
71034;Laerm;58847;52.378;4.740;2022-08-03T00:46:34;34.34;32.47;37.66;;
71034;Laerm;58847;52.378;4.740;2022-08-03T00:46:44;34.45;32.65;36.93;;
71034;Laerm;58847;52.378;4.740;2022-08-03T00:46:55;35.03;32.68;38.43;;
71034;Laerm;58847;52.378;4.740;2022-08-03T00:47:05;35.51;33.42;39.19;;
71034;Laerm;58847;52.378;4.740;2022-08-03T00:47:15;34.74;32.66;39.12;;
71034;Laerm;58847;52.378;4.740;2022-08-03T00:47:26;34.63;32.59;39.65;;
71034;Laerm;58847;52.378;4.740;2022-08-03T00:47:36;34.38;32.44;37.11;;
71034;Laerm;58847;52.378;4.740;2022-08-03T00:47:46;34.88;32.46;38.63;;
71034;Laerm;58847;52.378;4.740;2022-08-03T00:47:56;34.64;32.67;39.05;;
71034;Laerm;58847;52.378;4.740;2022-08-03T00:48:07;35.14;33.19;38.33;;
71034;Laerm;58847;52.378;4.740;2022-08-03T00:48:18;36.60;34.04;39.30;;
71034;Laerm;58847;52.378;4.740;2022-08-03T00:48:28;34.96;32.51;44.93;;
71034;Laerm;58847;52.378;4.740;2022-08-03T00:48:38;35.02;32.37;39.76;;
71034;Laerm;58847;52.378;4.740;2022-08-03T00:48:49;35.15;33.79;39.28;;
71034;Laerm;58847;52.378;4.740;2022-08-03T00:48:59;35.75;33.85;40.05;;
71034;Laerm;58847;52.378;4.740;2022-08-03T00:49:09;35.39;33.41;37.99;;
71034;Laerm;58847;52.378;4.740;2022-08-03T00:49:20;35.94;32.63;39.40;;
71034;Laerm;58847;52.378;4.740;2022-08-03T00:49:30;34.34;32.85;37.73;;
71034;Laerm;58847;52.378;4.740;2022-08-03T00:49:40;34.33;32.51;38.24;;
71034;Laerm;58847;52.378;4.740;2022-08-03T00:49:51;35.22;33.29;38.13;;
71034;Laerm;58847;52.378;4.740;2022-08-03T00:50:02;35.54;33.63;38.25;;
71034;Laerm;58847;52.378;4.740;2022-08-03T00:50:12;38.11;35.33;41.60;;
71034;Laerm;58847;52.378;4.740;2022-08-03T00:50:23;38.73;36.28;42.61;;
71034;Laerm;58847;52.378;4.740;2022-08-03T00:50:35;40.72;36.05;46.41;;
71034;Laerm;58847;52.378;4.740;2022-08-03T00:50:45;41.35;36.13;47.39;;
71034;Laerm;58847;52.378;4.740;2022-08-03T00:50:56;43.44;38.96;50.56;;
71034;Laerm;58847;52.378;4.740;2022-08-03T00:51:07;40.27;34.98;44.31;;
71034;Laerm;58847;52.378;4.740;2022-08-03T00:51:17;36.75;34.30;40.17;;
71034;Laerm;58847;52.378;4.740;2022-08-03T00:51:28;38.10;34.57;42.05;;
71034;Laerm;58847;52.378;4.740;2022-08-03T00:51:39;35.74;33.26;39.18;;
71034;Laerm;58847;52.378;4.740;2022-08-03T00:51:49;34.54;32.47;39.79;;
71034;Laerm;58847;52.378;4.740;2022-08-03T00:51:59;35.03;32.66;38.59;;
71034;Laerm;58847;52.378;4.740;2022-08-03T00:52:10;36.35;33.92;39.05;;
71034;Laerm;58847;52.378;4.740;2022-08-03T00:52:22;35.55;33.34;41.85;;
71034;Laerm;58847;52.378;4.740;2022-08-03T00:52:33;35.72;33.34;39.81;;
71034;Laerm;58847;52.378;4.740;2022-08-03T00:52:43;34.60;32.63;36.88;;
71034;Laerm;58847;52.378;4.740;2022-08-03T00:52:54;34.84;33.27;40.23;;
71034;Laerm;58847;52.378;4.740;2022-08-03T00:53:05;35.04;33.20;37.78;;
71034;Laerm;58847;52.378;4.740;2022-08-03T00:53:16;35.37;32.68;40.34;;
71034;Laerm;58847;52.378;4.740;2022-08-03T00:53:26;34.59;32.10;40.57;;
71034;Laerm;58847;52.378;4.740;2022-08-03T00:53:37;34.83;32.15;38.01;;
71034;Laerm;58847;52.378;4.740;2022-08-03T00:53:47;33.97;32.37;38.19;;
71034;Laerm;58847;52.378;4.740;2022-08-03T00:53:58;35.48;31.93;41.54;;
71034;Laerm;58847;52.378;4.740;2022-08-03T00:54:08;34.48;32.25;37.10;;
71034;Laerm;58847;52.378;4.740;2022-08-03T00:54:19;34.94;32.30;41.40;;
71034;Laerm;58847;52.378;4.740;2022-08-03T00:54:29;34.50;32.75;37.69;;
71034;Laerm;58847;52.378;4.740;2022-08-03T00:54:39;34.52;32.08;39.08;;
71034;Laerm;58847;52.378;4.740;2022-08-03T00:54:49;34.74;32.90;41.80;;
71034;Laerm;58847;52.378;4.740;2022-08-03T00:55:00;34.09;32.27;39.63;;
71034;Laerm;58847;52.378;4.740;2022-08-03T00:55:11;34.66;32.18;42.20;;
71034;Laerm;58847;52.378;4.740;2022-08-03T00:55:22;34.24;32.02;41.66;;
71034;Laerm;58847;52.378;4.740;2022-08-03T00:55:32;34.55;32.88;40.56;;
71034;Laerm;58847;52.378;4.740;2022-08-03T00:55:43;34.10;32.11;40.55;;
71034;Laerm;58847;52.378;4.740;2022-08-03T00:55:53;33.64;31.58;37.06;;
71034;Laerm;58847;52.378;4.740;2022-08-03T00:56:04;33.72;31.96;36.67;;
71034;Laerm;58847;52.378;4.740;2022-08-03T00:56:15;34.32;32.57;37.79;;
71034;Laerm;58847;52.378;4.740;2022-08-03T00:56:25;33.67;31.87;36.72;;
71034;Laerm;58847;52.378;4.740;2022-08-03T00:56:35;34.28;31.62;43.36;;
71034;Laerm;58847;52.378;4.740;2022-08-03T00:56:46;33.94;31.65;41.97;;
71034;Laerm;58847;52.378;4.740;2022-08-03T00:56:56;33.57;31.99;37.55;;
71034;Laerm;58847;52.378;4.740;2022-08-03T00:57:06;34.30;32.07;41.01;;
71034;Laerm;58847;52.378;4.740;2022-08-03T00:57:17;35.74;31.89;40.13;;
71034;Laerm;58847;52.378;4.740;2022-08-03T00:57:27;36.08;33.87;40.56;;
71034;Laerm;58847;52.378;4.740;2022-08-03T00:57:39;35.07;32.65;43.81;;
71034;Laerm;58847;52.378;4.740;2022-08-03T00:57:49;34.32;32.26;37.82;;
71034;Laerm;58847;52.378;4.740;2022-08-03T00:57:59;34.13;32.29;36.83;;
71034;Laerm;58847;52.378;4.740;2022-08-03T00:58:10;33.84;32.03;37.56;;
71034;Laerm;58847;52.378;4.740;2022-08-03T00:58:20;33.92;31.87;40.91;;
71034;Laerm;58847;52.378;4.740;2022-08-03T00:58:31;33.61;31.81;39.05;;